Time;durP1;ratioP1;P1;durP2;ratioP2;P2;SDS_P1;SDS_P2;PMS_P1;PMS_P2;Temp;Humidity;BMP_temperature;BMP_pressure;BME280_temperature;BME280_humidity;BME280_pressure;Samples;Min_cycle;Max_cycle;Signal;HPM_P1;HPM_P2
2023/05/16 02:41:38;;;;;;;;;;;16.70;71.90;;;;;;5689363;23;19928;-96
2023/05/16 02:44:09;;;;;;;;;;;16.60;72.40;;;;;;4929480;29;19935;-96
2023/05/16 02:46:45;;;;;;;;;;;16.60;73.60;;;;;;4905950;29;19903;-96
2023/05/16 02:49:37;;;;;;;;;;;16.50;73.70;;;;;;4922068;29;20399;-96
2023/05/16 02:52:21;;;;;;;;;;;16.50;75.00;;;;;;4922741;29;19924;-96
2023/05/16 02:54:59;;;;;;;;;;;16.40;76.20;;;;;;4907512;29;19896;-96
2023/05/16 02:57:37;;;;;;;;;;;16.30;75.90;;;;;;4908287;29;20339;-96
2023/05/16 03:00:11;;;;;;;;;;;16.20;76.20;;;;;;4908265;29;19955;-96
2023/05/16 03:02:42;;;;;;;;;;;16.10;77.40;;;;;;4906842;29;19896;-96
2023/05/16 03:05:16;;;;;;;;;;;16.00;77.40;;;;;;4903373;29;19919;-96
2023/05/16 03:07:55;;;;;;;;;;;;;;;;;;;;;
2023/05/16 03:10:34;;;;;;;;;;;15.80;76.10;;;;;;4922071;29;19939;-96
2023/05/16 03:13:09;;;;;;;;;;;15.80;76.40;;;;;;4918095;29;19940;-96
2023/05/16 03:15:40;;;;;;;;;;;15.80;76.60;;;;;;4914035;29;19896;-96
2023/05/16 03:18:17;;;;;;;;;;;15.90;76.10;;;;;;4921690;29;19947;-96
2023/05/16 03:20:57;;;;;;;;;;;15.80;76.60;;;;;;4922506;29;19900;-96
2023/05/16 03:23:31;;;;;;;;;;;15.80;77.40;;;;;;4906713;29;19906;-96
2023/05/16 03:26:00;;;;;;;;;;;15.80;76.80;;;;;;4901205;29;19986;-96
2023/05/16 03:28:37;;;;;;;;;;;15.80;76.80;;;;;;4906441;29;19911;-96
2023/05/16 03:31:19;;;;;;;;;;;15.80;76.80;;;;;;4921990;29;19915;-96
2023/05/16 03:34:07;;;;;;;;;;;15.80;76.70;;;;;;4936676;29;19918;-96
2023/05/16 03:36:58;;;;;;;;;;;15.80;77.20;;;;;;4960604;28;19914;-96
2023/05/16 03:39:38;;;;;;;;;;;15.80;76.70;;;;;;4944677;29;19950;-96
2023/05/16 03:42:12;;;;;;;;;;;15.80;77.20;;;;;;4941680;29;19894;-96
2023/05/16 03:44:43;;;;;;;;;;;15.80;78.00;;;;;;4944347;28;19962;-96
2023/05/16 03:47:11;;;;;;;;;;;15.70;78.50;;;;;;4944394;29;19919;-96
2023/05/16 03:49:41;;;;;;;;;;;15.70;78.90;;;;;;4944267;29;19919;-96
2023/05/16 03:52:27;;;;;;;;;;;15.60;79.70;;;;;;4960496;28;19969;-96
2023/05/16 03:55:25;;;;;;;;;;;15.50;79.70;;;;;;4944346;29;19911;-96
2023/05/16 03:58:00;;;;;;;;;;;15.40;79.80;;;;;;4944191;29;19899;-96
2023/05/16 04:00:46;;;;;;;;;;;15.40;80.40;;;;;;4960649;28;19895;-96
2023/05/16 04:03:17;;;;;;;;;;;15.30;80.80;;;;;;4960267;28;19906;-96
2023/05/16 04:06:07;;;;;;;;;;;15.30;81.00;;;;;;4944400;29;19915;-96
2023/05/16 04:11:19;;;;;;;;;;;15.30;80.60;;;;;;5896350;23;19917;-96
2023/05/16 04:13:55;;;;;;;;;;;15.30;80.30;;;;;;4960193;28;19918;-96
2023/05/16 04:16:30;;;;;;;;;;;15.30;80.50;;;;;;4962026;29;19903;-96
2023/05/16 04:19:03;;;;;;;;;;;15.30;81.80;;;;;;4947272;29;19915;-96
2023/05/16 04:21:34;;;;;;;;;;;15.30;82.20;;;;;;4962512;29;19899;-96
2023/05/16 04:24:27;;;;;;;;;;;15.30;81.90;;;;;;4979654;28;19899;-96
2023/05/16 04:27:16;;;;;;;;;;;15.30;82.30;;;;;;4978701;28;19909;-96
2023/05/16 04:29:55;;;;;;;;;;;15.30;81.60;;;;;;4948678;29;19954;-96
2023/05/16 04:32:34;;;;;;;;;;;15.20;81.20;;;;;;4963230;29;19899;-96
2023/05/16 04:48:04;;;;;;;;;;;15.10;82.50;;;;;;5473819;23;20103;-96
2023/05/16 04:50:41;;;;;;;;;;;15.10;82.80;;;;;;4979376;28;19902;-96
2023/05/16 04:53:13;;;;;;;;;;;15.10;83.00;;;;;;4978944;29;19915;-96
2023/05/16 04:55:44;;;;;;;;;;;15.10;83.20;;;;;;4961849;29;19894;-96
2023/05/16 04:58:16;;;;;;;;;;;15.20;83.20;;;;;;4962927;29;19898;-96
2023/05/16 05:00:47;;;;;;;;;;;15.10;83.80;;;;;;4978400;29;19952;-96
2023/05/16 05:03:16;;;;;;;;;;;15.10;85.00;;;;;;4959023;29;19911;-96
2023/05/16 05:05:53;;;;;;;;;;;15.00;84.30;;;;;;4959873;29;19894;-96
2023/05/16 05:08:23;;;;;;;;;;;14.90;84.70;;;;;;4960180;29;19915;-96
2023/05/16 05:11:04;;;;;;;;;;;15.00;84.60;;;;;;4960032;29;19894;-96
2023/05/16 05:13:30;;;;;;;;;;;15.00;84.80;;;;;;4958861;29;19957;-96
2023/05/16 05:16:00;;;;;;;;;;;14.90;84.50;;;;;;4959699;29;19911;-96
2023/05/16 05:18:27;;;;;;;;;;;15.00;84.10;;;;;;4960223;29;19959;-96
2023/05/16 05:20:54;;;;;;;;;;;15.10;83.90;;;;;;4958856;29;19945;-96
2023/05/16 05:23:27;;;;;;;;;;;15.20;83.90;;;;;;4957973;29;19974;-96
2023/05/16 05:25:56;;;;;;;;;;;15.30;83.70;;;;;;4958555;29;19957;-96
2023/05/16 05:28:25;;;;;;;;;;;15.40;84.10;;;;;;4960307;29;19914;-96
2023/05/16 05:31:08;;;;;;;;;;;15.50;84.00;;;;;;4964154;29;19911;-96
2023/05/16 05:33:42;;;;;;;;;;;15.70;84.10;;;;;;4980851;29;19911;-96
2023/05/16 05:36:12;;;;;;;;;;;15.80;84.00;;;;;;4948745;29;20002;-96
2023/05/16 05:38:41;;;;;;;;;;;15.90;83.50;;;;;;4963754;29;19919;-96
2023/05/16 05:41:11;;;;;;;;;;;16.00;84.00;;;;;;4963909;29;19911;-96
2023/05/16 05:43:40;;;;;;;;;;;16.10;83.90;;;;;;4958620;29;19954;-96
2023/05/16 05:46:10;;;;;;;;;;;16.00;83.50;;;;;;4944498;29;19949;-96
2023/05/16 05:48:43;;;;;;;;;;;16.00;83.60;;;;;;4943495;29;19923;-96
2023/05/16 05:51:12;;;;;;;;;;;15.80;84.30;;;;;;4944129;29;19918;-96
2023/05/16 05:53:45;;;;;;;;;;;15.80;84.80;;;;;;4944430;29;19962;-96
2023/05/16 05:56:14;;;;;;;;;;;15.80;85.40;;;;;;4943035;29;19935;-96
2023/05/16 05:58:44;;;;;;;;;;;15.80;85.30;;;;;;4944346;29;19944;-96
2023/05/16 06:01:23;;;;;;;;;;;15.70;85.70;;;;;;4944442;29;19907;-96
2023/05/16 06:03:54;;;;;;;;;;;15.70;85.60;;;;;;4945254;29;19902;-96
2023/05/16 06:06:20;;;;;;;;;;;15.80;86.10;;;;;;4944529;29;19919;-96
2023/05/16 06:08:52;;;;;;;;;;;15.80;85.60;;;;;;4943247;29;19991;-97
2023/05/16 06:11:22;;;;;;;;;;;15.80;85.10;;;;;;4943654;29;19957;-96
2023/05/16 06:13:52;;;;;;;;;;;15.90;85.30;;;;;;4943242;29;19981;-96
2023/05/16 06:16:22;;;;;;;;;;;15.90;85.50;;;;;;4943152;29;19918;-96
2023/05/16 06:18:51;;;;;;;;;;;16.00;85.50;;;;;;4942501;29;19915;-96
2023/05/16 06:21:32;;;;;;;;;;;16.00;85.40;;;;;;4943437;29;19906;-96
2023/05/16 06:24:02;;;;;;;;;;;15.90;84.80;;;;;;4945440;29;19915;-96
2023/05/16 06:26:52;;;;;;;;;;;15.90;84.50;;;;;;4960858;29;19939;-96
2023/05/16 06:29:30;;;;;;;;;;;15.90;85.00;;;;;;4944843;29;19942;-96
2023/05/16 06:32:20;;;;;;;;;;;15.90;83.80;;;;;;4943242;29;19922;-96
2023/05/16 06:35:00;;;;;;;;;;;15.80;83.70;;;;;;4958588;29;19970;-96
2023/05/16 06:37:59;;;;;;;;;;;15.90;82.60;;;;;;4962076;29;19895;-96
2023/05/16 06:40:32;;;;;;;;;;;15.90;82.00;;;;;;4961040;29;19986;-96
2023/05/16 06:43:10;;;;;;;;;;;15.90;80.00;;;;;;4961812;29;19899;-96
2023/05/16 06:45:45;;;;;;;;;;;15.80;78.50;;;;;;4946056;29;19919;-96
2023/05/16 06:48:15;;;;;;;;;;;15.80;79.00;;;;;;4959553;29;19906;-96
2023/05/16 07:06:27;;;;;;;;;;;15.20;82.80;;;;;;5114084;23;19926;-96
